Time;durP1;ratioP1;P1;durP2;ratioP2;P2;SDS_P1;SDS_P2;PMS_P1;PMS_P2;Temp;Humidity;BMP_temperature;BMP_pressure;BME280_temperature;BME280_humidity;BME280_pressure;Samples;Min_cycle;Max_cycle;Signal;HPM_P1;HPM_P2
2021/06/15 00:00:42;;;;;;;8.48;5.32;;;16.40;99.90;;;;;;5034069;28;20081;-51
2021/06/15 00:03:08;;;;;;;9.05;5.72;;;16.40;99.90;;;;;;5035348;28;20116;-52
2021/06/15 00:05:33;;;;;;;10.57;6.00;;;16.40;99.90;;;;;;5035382;28;20037;-51
2021/06/15 00:07:59;;;;;;;11.85;5.85;;;16.40;99.90;;;;;;5035511;28;20445;-52
2021/06/15 00:10:26;;;;;;;10.60;6.10;;;16.40;99.90;;;;;;5036498;28;20099;-51
2021/06/15 00:12:54;;;;;;;7.65;6.10;;;16.40;99.90;;;;;;5034981;28;20022;-53
2021/06/15 00:15:21;;;;;;;10.90;6.15;;;16.40;99.90;;;;;;5034891;28;20080;-52
2021/06/15 00:17:48;;;;;;;7.75;6.50;;;16.40;99.90;;;;;;5035392;28;20436;-49
2021/06/15 00:20:14;;;;;;;8.65;5.68;;;16.30;99.90;;;;;;5030393;28;20046;-50
2021/06/15 00:22:42;;;;;;;11.05;6.15;;;16.40;99.90;;;;;;5033909;28;20492;-50
2021/06/15 00:25:09;;;;;;;10.10;6.10;;;16.30;99.90;;;;;;5035899;28;20499;-52
2021/06/15 00:27:35;;;;;;;6.95;5.80;;;16.40;99.90;;;;;;4975590;28;20050;-53
2021/06/15 00:30:01;;;;;;;8.77;6.20;;;16.30;99.90;;;;;;5034861;28;20028;-49
2021/06/15 00:32:26;;;;;;;12.43;6.05;;;16.20;99.90;;;;;;4984081;28;20033;-49
2021/06/15 00:34:52;;;;;;;9.75;6.68;;;16.30;99.90;;;;;;5033404;28;20822;-52
2021/06/15 00:37:18;;;;;;;10.32;6.90;;;16.30;99.90;;;;;;5034682;28;20025;-52
2021/06/15 00:39:46;;;;;;;9.88;6.20;;;16.40;99.90;;;;;;5035239;28;20033;-50
2021/06/15 00:42:12;;;;;;;9.27;6.13;;;16.30;99.90;;;;;;5034440;28;20390;-49
2021/06/15 00:44:38;;;;;;;11.70;6.47;;;16.40;99.90;;;;;;5034622;28;20055;-52
2021/06/15 00:47:04;;;;;;;8.32;5.70;;;16.40;99.90;;;;;;5034586;28;20041;-50
2021/06/15 00:49:36;;;;;;;11.30;5.80;;;16.40;99.90;;;;;;5017016;28;20043;-52
2021/06/15 00:52:03;;;;;;;7.85;5.75;;;16.40;99.90;;;;;;5035127;28;20025;-53
2021/06/15 00:54:29;;;;;;;9.13;5.82;;;16.50;99.90;;;;;;5034380;28;20048;-51
2021/06/15 00:56:55;;;;;;;10.45;6.45;;;16.50;99.90;;;;;;5034676;28;20508;-54
2021/06/15 00:59:21;;;;;;;9.07;6.30;;;16.50;99.90;;;;;;5034630;28;20033;-51
2021/06/15 01:01:47;;;;;;;8.43;5.45;;;16.50;99.90;;;;;;5034452;28;20033;-52
2021/06/15 01:04:15;;;;;;;7.03;5.60;;;16.50;99.90;;;;;;5015680;28;20052;-50
2021/06/15 01:07:01;;;;;;;8.02;5.15;;;16.30;99.90;;;;;;5034211;28;20033;-49
2021/06/15 01:09:27;;;;;;;8.52;5.70;;;16.40;99.90;;;;;;5047603;28;20034;-52
2021/06/15 01:12:43;;;;;;;8.40;6.03;;;16.40;99.90;;;;;;5034662;28;20025;-51
2021/06/15 01:15:15;;;;;;;9.30;6.53;;;16.40;99.90;;;;;;4973597;28;20166;-52
2021/06/15 01:17:57;;;;;;;9.77;7.43;;;16.30;99.90;;;;;;4941482;28;20054;-49
2021/06/15 01:20:56;;;;;;;8.20;4.80;;;16.40;99.90;;;;;;4973070;28;20320;-52
2021/06/15 01:23:41;;;;;;;14.88;11.45;;;16.40;99.90;;;;;;4986669;28;20129;-52
2021/06/15 01:26:18;;;;;;;36.58;27.38;;;16.30;99.90;;;;;;4972531;28;20161;-51
2021/06/15 01:29:04;;;;;;;38.05;25.35;;;16.20;99.90;;;;;;4973039;28;20038;-51
2021/06/15 01:31:51;;;;;;;38.25;28.50;;;16.40;99.90;;;;;;4972944;28;20080;-52
2021/06/15 01:34:29;;;;;;;40.72;31.17;;;16.30;99.90;;;;;;4972193;28;20134;-48
2021/06/15 01:37:14;;;;;;;23.33;18.33;;;16.30;99.90;;;;;;4972315;28;20027;-49
2021/06/15 01:39:49;;;;;;;15.95;10.95;;;16.30;99.90;;;;;;4940308;28;20509;-52
2021/06/15 01:42:31;;;;;;;14.05;10.48;;;16.30;99.90;;;;;;4973200;28;20822;-51
2021/06/15 01:45:06;;;;;;;8.60;6.72;;;16.30;99.90;;;;;;4972448;28;20035;-54
2021/06/15 01:47:35;;;;;;;7.90;5.57;;;16.40;99.90;;;;;;4972357;28;20103;-49
2021/06/15 01:50:05;;;;;;;9.55;5.68;;;16.40;99.90;;;;;;4998988;28;20372;-51
2021/06/15 01:52:35;;;;;;;6.60;4.78;;;16.40;99.90;;;;;;5011698;28;20466;-53
2021/06/15 01:55:06;;;;;;;7.20;4.55;;;16.40;99.90;;;;;;5012867;28;20045;-49
2021/06/15 01:57:33;;;;;;;7.88;4.72;;;16.40;99.90;;;;;;5012050;28;20497;-52
2021/06/15 02:00:06;;;;;;;8.95;5.00;;;16.40;99.90;;;;;;5012419;28;20480;-54
2021/06/15 02:02:34;;;;;;;10.88;4.82;;;16.40;99.90;;;;;;4923999;28;20034;-50
2021/06/15 02:04:59;;;;;;;6.90;3.92;;;16.40;99.90;;;;;;4990362;28;20089;-51
2021/06/15 02:07:31;;;;;;;8.18;5.13;;;16.30;99.90;;;;;;4980729;28;20129;-51
2021/06/15 02:10:07;;;;;;;7.03;4.65;;;16.20;99.90;;;;;;4988734;28;20041;-50
2021/06/15 02:12:40;;;;;;;9.27;4.45;;;16.10;99.90;;;;;;4949227;28;20034;-54
2021/06/15 02:15:07;;;;;;;7.57;4.18;;;16.30;99.90;;;;;;4980845;28;20078;-53
2021/06/15 02:17:34;;;;;;;8.30;4.72;;;16.20;99.90;;;;;;4970103;28;20425;-54
2021/06/15 02:20:00;;;;;;;9.18;4.50;;;16.10;99.90;;;;;;4984601;28;20033;-51
2021/06/15 02:22:28;;;;;;;11.02;5.03;;;16.20;99.90;;;;;;4990602;28;20454;-54
2021/06/15 02:24:58;;;;;;;8.93;4.85;;;16.20;99.90;;;;;;4982084;28;20053;-53
2021/06/15 02:27:24;;;;;;;6.97;4.55;;;16.20;99.90;;;;;;4984776;28;20133;-52
2021/06/15 02:29:55;;;;;;;8.88;4.57;;;16.10;99.90;;;;;;4991660;28;20367;-52
2021/06/15 02:32:27;;;;;;;8.32;4.72;;;16.20;99.90;;;;;;4990316;28;20093;-53
2021/06/15 02:34:55;;;;;;;10.48;4.32;;;16.20;99.90;;;;;;5028259;28;20114;-50
2021/06/15 02:37:27;;;;;;;8.02;4.35;;;16.00;99.90;;;;;;5007188;28;20037;-50
2021/06/15 02:39:57;;;;;;;8.57;4.70;;;16.10;99.90;;;;;;5032541;28;20449;-52
2021/06/15 02:42:24;;;;;;;10.23;4.40;;;15.90;99.90;;;;;;5031297;28;20372;-54
2021/06/15 02:44:53;;;;;;;8.05;4.35;;;16.00;99.90;;;;;;5032581;28;20492;-51
2021/06/15 02:47:20;;;;;;;8.30;4.50;;;15.80;99.90;;;;;;5035375;28;20034;-48
2021/06/15 02:49:57;;;;;;;8.75;4.35;;;15.80;99.90;;;;;;5037527;28;20047;-55
2021/06/15 02:52:38;;;;;;;8.77;4.28;;;15.90;99.90;;;;;;5037191;28;20033;-49
2021/06/15 02:55:17;;;;;;;7.40;4.40;;;15.90;99.90;;;;;;4998609;28;20524;-48
2021/06/15 02:57:42;;;;;;;7.90;5.00;;;15.90;99.90;;;;;;5036524;28;20596;-54
2021/06/15 03:00:11;;;;;;;8.18;4.82;;;16.00;99.90;;;;;;5037102;28;20045;-51
2021/06/15 03:02:37;;;;;;;6.28;4.03;;;16.00;99.90;;;;;;4986308;28;20036;-52
2021/06/15 03:05:07;;;;;;;8.20;4.22;;;16.10;99.90;;;;;;5019017;28;20029;-54
2021/06/15 03:07:33;;;;;;;7.57;3.95;;;16.00;99.90;;;;;;5018521;28;20072;-52
2021/06/15 03:10:05;;;;;;;6.20;4.38;;;15.90;99.90;;;;;;5036322;28;20053;-53
2021/06/15 03:12:36;;;;;;;11.43;4.80;;;16.10;99.90;;;;;;5035954;28;20041;-54
2021/06/15 03:15:08;;;;;;;7.43;4.95;;;16.00;99.90;;;;;;5034395;28;20091;-49
2021/06/15 03:17:37;;;;;;;5.68;3.80;;;16.10;99.90;;;;;;5018074;28;20049;-50
2021/06/15 03:20:08;;;;;;;7.75;4.63;;;16.20;99.90;;;;;;5036364;28;20483;-58
2021/06/15 03:22:49;;;;;;;14.30;6.13;;;16.20;99.90;;;;;;4985260;28;20373;-52
2021/06/15 03:25:19;;;;;;;7.03;4.30;;;16.30;99.90;;;;;;5035759;28;20029;-49
2021/06/15 03:27:53;;;;;;;7.60;3.92;;;16.30;99.90;;;;;;5035312;28;20053;-50
2021/06/15 03:30:21;;;;;;;8.27;4.03;;;16.30;99.90;;;;;;5031044;28;20025;-52
2021/06/15 03:32:52;;;;;;;6.40;3.78;;;16.20;99.90;;;;;;5001555;28;20048;-52
2021/06/15 03:35:19;;;;;;;6.43;3.67;;;16.10;99.90;;;;;;5032320;28;20053;-53
2021/06/15 03:37:51;;;;;;;4.20;3.30;;;16.10;99.90;;;;;;5035777;28;20451;-50
2021/06/15 03:40:19;;;;;;;6.38;3.70;;;16.10;99.90;;;;;;4981465;28;20038;-51
2021/06/15 03:42:45;;;;;;;5.53;3.67;;;16.10;99.90;;;;;;5015283;28;20034;-52
2021/06/15 03:45:12;;;;;;;8.32;4.15;;;16.00;99.90;;;;;;5014777;28;20493;-53
2021/06/15 03:47:40;;;;;;;6.63;3.65;;;16.10;99.90;;;;;;4996348;28;20058;-53
2021/06/15 03:50:08;;;;;;;5.70;3.67;;;16.10;99.90;;;;;;5014762;28;20038;-52
2021/06/15 03:52:38;;;;;;;4.97;3.40;;;16.00;99.90;;;;;;4975186;28;20529;-53
2021/06/15 03:55:07;;;;;;;9.68;4.82;;;16.00;99.90;;;;;;5015232;28;20468;-50
2021/06/15 03:57:41;;;;;;;8.38;3.80;;;16.20;99.90;;;;;;5014058;28;20030;-50
2021/06/15 04:00:28;;;;;;;9.23;3.72;;;16.10;99.90;;;;;;5014524;28;20444;-50
2021/06/15 04:02:56;;;;;;;10.85;4.75;;;16.20;99.90;;;;;;5014403;28;20123;-51
2021/06/15 04:05:26;;;;;;;8.05;3.97;;;16.20;99.90;;;;;;4978548;28;20042;-52
2021/06/15 04:07:55;;;;;;;5.85;3.80;;;16.40;99.90;;;;;;5010728;28;20529;-51
2021/06/15 04:10:22;;;;;;;8.23;4.57;;;16.50;99.90;;;;;;5007866;28;20040;-52
2021/06/15 04:12:50;;;;;;;6.72;4.10;;;16.50;99.90;;;;;;5030796;28;20409;-53
2021/06/15 04:15:17;;;;;;;8.35;4.00;;;16.60;99.90;;;;;;5027900;28;20532;-50
2021/06/15 04:17:51;;;;;;;9.95;4.15;;;16.50;99.90;;;;;;5029361;28;20021;-49
2021/06/15 04:20:23;;;;;;;5.82;3.90;;;16.50;99.90;;;;;;5029384;28;20029;-51
2021/06/15 04:22:52;;;;;;;10.20;4.32;;;16.30;99.90;;;;;;5033903;28;20029;-52
2021/06/15 04:25:26;;;;;;;10.73;5.00;;;16.40;99.90;;;;;;5014926;28;20033;-52
2021/06/15 04:27:52;;;;;;;5.50;4.13;;;16.40;99.90;;;;;;5030074;28;20065;-50
2021/06/15 04:30:19;;;;;;;8.68;3.92;;;16.30;99.90;;;;;;5034117;28;20124;-53
2021/06/15 04:32:51;;;;;;;5.20;4.20;;;16.40;99.90;;;;;;5034194;28;20033;-52
2021/06/15 04:35:46;;;;;;;6.05;4.53;;;16.50;99.90;;;;;;5034556;28;20034;-53
2021/06/15 04:38:22;;;;;;;12.90;6.45;;;16.70;99.90;;;;;;5031378;28;20068;-52
2021/06/15 04:40:51;;;;;;;7.25;4.63;;;16.80;99.90;;;;;;5046015;28;20136;-53
2021/06/15 04:43:43;;;;;;;8.27;4.40;;;16.80;99.90;;;;;;5016114;28;20033;-54
2021/06/15 04:46:31;;;;;;;11.82;4.75;;;16.80;99.90;;;;;;5034701;28;20032;-50
2021/06/15 04:49:20;;;;;;;12.55;5.15;;;16.90;99.90;;;;;;5034381;28;20099;-51
2021/06/15 04:51:48;;;;;;;10.48;5.43;;;;;;;;;;5034200;28;20428;-51
2021/06/15 04:54:19;;;;;;;10.60;5.15;;;16.90;99.90;;;;;;5031257;28;20034;-48
2021/06/15 04:56:47;;;;;;;13.75;5.78;;;16.90;99.90;;;;;;5021142;28;20025;-50
2021/06/15 04:59:14;;;;;;;11.20;4.60;;;17.00;99.90;;;;;;5029037;28;20036;-51
2021/06/15 05:01:43;;;;;;;10.82;4.45;;;16.90;99.90;;;;;;5029321;28;20026;-47
2021/06/15 05:04:09;;;;;;;11.63;5.93;;;16.80;99.90;;;;;;5026694;28;20045;-49
2021/06/15 05:06:40;;;;;;;9.43;5.68;;;16.80;99.90;;;;;;5030888;28;20038;-48
2021/06/15 05:09:08;;;;;;;10.55;4.72;;;16.60;99.90;;;;;;5027016;28;20036;-51
2021/06/15 05:11:37;;;;;;;7.43;4.70;;;16.70;99.90;;;;;;5029902;28;20029;-49
2021/06/15 05:14:06;;;;;;;9.45;5.22;;;16.70;99.90;;;;;;5031656;28;20601;-52
2021/06/15 05:16:33;;;;;;;8.05;4.70;;;16.70;99.90;;;;;;5024518;28;20086;-49
2021/06/15 05:19:00;;;;;;;7.65;5.28;;;16.80;99.90;;;;;;5024204;28;20376;-50
2021/06/15 05:21:32;;;;;;;7.25;5.50;;;16.90;99.90;;;;;;5027797;28;20026;-50
2021/06/15 05:24:03;;;;;;;9.45;4.75;;;17.00;99.90;;;;;;5022259;28;20060;-49
2021/06/15 05:26:31;;;;;;;5.85;5.07;;;17.00;99.90;;;;;;5024405;28;20025;-51
2021/06/15 05:28:56;;;;;;;11.25;5.22;;;17.30;99.90;;;;;;5025077;28;20575;-49
2021/06/15 05:31:22;;;;;;;8.93;4.90;;;17.50;99.90;;;;;;5026970;28;20042;-52
2021/06/15 05:33:48;;;;;;;6.32;4.68;;;17.50;99.90;;;;;;5009322;28;20037;-50
2021/06/15 05:36:14;;;;;;;5.88;4.82;;;17.40;99.90;;;;;;5012129;28;20048;-52
2021/06/15 05:38:40;;;;;;;10.90;4.65;;;17.50;99.90;;;;;;4995261;28;20029;-50
2021/06/15 05:41:06;;;;;;;10.55;5.10;;;17.50;99.90;;;;;;5028740;28;20028;-53
2021/06/15 05:43:33;;;;;;;8.07;4.93;;;17.40;99.90;;;;;;5014178;28;20034;-49
2021/06/15 05:45:58;;;;;;;7.10;4.90;;;17.60;99.90;;;;;;5028391;28;20357;-48
2021/06/15 05:48:24;;;;;;;9.02;4.65;;;17.60;99.90;;;;;;5033204;28;20044;-48
2021/06/15 05:50:50;;;;;;;6.72;4.65;;;17.80;99.90;;;;;;5027681;28;20025;-52
2021/06/15 05:53:16;;;;;;;6.95;4.90;;;17.90;99.90;;;;;;5029565;28;20424;-51
2021/06/15 05:55:42;;;;;;;9.95;4.65;;;17.80;99.90;;;;;;5009185;28;20041;-51
2021/06/15 05:58:09;;;;;;;8.98;4.50;;;17.90;99.90;;;;;;5043639;28;20045;-50
2021/06/15 06:00:35;;;;;;;7.00;4.82;;;18.00;99.90;;;;;;5031269;28;20431;-49
2021/06/15 06:03:01;;;;;;;10.50;4.80;;;17.90;99.90;;;;;;5026703;28;20080;-51
2021/06/15 06:08:06;;;;;;;6.90;4.13;;;;;;;;;;5027088;28;20478;-51
2021/06/15 06:10:32;;;;;;;7.05;4.53;;;18.30;99.90;;;;;;5032727;28;20444;-50
2021/06/15 06:12:58;;;;;;;10.13;4.85;;;18.60;99.90;;;;;;5030324;28;20033;-51
2021/06/15 06:15:24;;;;;;;9.23;4.25;;;18.90;99.90;;;;;;5009756;28;20053;-51
2021/06/15 06:17:50;;;;;;;6.75;4.60;;;19.10;99.90;;;;;;4979585;28;20377;-52
2021/06/15 06:20:18;;;;;;;6.47;3.92;;;19.20;99.90;;;;;;5030648;28;20037;-50
2021/06/15 06:22:44;;;;;;;7.88;3.72;;;19.20;99.90;;;;;;5030571;28;20078;-49
2021/06/15 06:25:15;;;;;;;6.75;4.28;;;19.30;99.90;;;;;;5028588;28;20067;-51
2021/06/15 06:27:41;;;;;;;6.50;3.77;;;19.10;99.90;;;;;;5029310;28;20066;-54
2021/06/15 06:30:08;;;;;;;14.43;4.40;;;19.30;99.90;;;;;;5030609;28;20441;-52
2021/06/15 06:32:34;;;;;;;6.05;3.20;;;19.40;99.90;;;;;;5032858;28;20060;-51
2021/06/15 06:35:03;;;;;;;6.63;3.10;;;19.60;99.90;;;;;;5029075;28;20026;-50
2021/06/15 06:37:29;;;;;;;9.38;3.22;;;19.40;99.90;;;;;;5026368;28;20034;-50
2021/06/15 06:39:55;;;;;;;7.45;3.13;;;19.60;99.90;;;;;;5030019;28;20040;-49
2021/06/15 06:42:20;;;;;;;4.43;3.22;;;19.80;99.90;;;;;;5018218;28;20365;-49
2021/06/15 06:44:47;;;;;;;6.78;3.20;;;19.80;99.90;;;;;;5024829;28;20032;-54
2021/06/15 06:47:13;;;;;;;5.55;2.75;;;19.90;99.90;;;;;;5025630;28;20061;-52
2021/06/15 06:49:38;;;;;;;5.03;2.58;;;19.90;99.90;;;;;;4997564;28;20406;-44
2021/06/15 06:52:05;;;;;;;5.78;2.85;;;;;;;;;;4974094;28;20504;-52
2021/06/15 06:54:30;;;;;;;6.15;2.92;;;20.30;99.90;;;;;;5023115;28;20389;-49
2021/06/15 06:56:56;;;;;;;5.63;2.40;;;20.40;99.90;;;;;;5026054;28;20032;-51
2021/06/15 06:59:22;;;;;;;4.50;2.65;;;20.30;99.90;;;;;;5000686;28;20045;-48
2021/06/15 07:01:48;;;;;;;5.78;3.05;;;;;;;;;;5026066;28;20057;-50
2021/06/15 07:04:14;;;;;;;8.05;2.75;;;20.40;99.90;;;;;;5024701;28;20129;-51
2021/06/15 07:06:40;;;;;;;4.85;2.70;;;20.50;99.90;;;;;;5025357;28;20120;-51
2021/06/15 07:09:06;;;;;;;4.65;3.00;;;20.60;99.90;;;;;;5011492;28;20034;-50
2021/06/15 07:11:32;;;;;;;6.03;2.60;;;20.80;99.90;;;;;;5026073;28;20060;-50
2021/06/15 07:13:57;;;;;;;8.25;3.58;;;20.70;99.90;;;;;;5027401;28;20213;-50
2021/06/15 07:16:23;;;;;;;4.72;2.95;;;;;;;;;;5027406;28;20116;-52
2021/06/15 07:18:50;;;;;;;7.82;2.70;;;21.00;99.90;;;;;;5027685;28;20029;-51
2021/06/15 07:21:16;;;;;;;4.22;2.60;;;21.10;99.90;;;;;;5030876;28;20036;-51
2021/06/15 07:23:41;;;;;;;5.40;2.33;;;21.10;99.90;;;;;;5030175;28;20025;-51
2021/06/15 07:26:08;;;;;;;8.95;2.40;;;21.20;99.90;;;;;;5028817;28;20186;-51
2021/06/15 07:28:33;;;;;;;4.65;2.20;;;21.00;99.90;;;;;;5028670;28;20065;-52
2021/06/15 07:30:59;;;;;;;4.22;2.17;;;21.10;99.90;;;;;;5022207;28;20504;-50
2021/06/15 07:33:25;;;;;;;3.10;2.15;;;;;;;;;;5034125;28;20094;-50
2021/06/15 07:35:52;;;;;;;4.68;2.20;;;21.50;99.90;;;;;;5032915;28;20026;-52
2021/06/15 07:38:17;;;;;;;4.25;2.42;;;21.50;99.90;;;;;;5033375;28;20042;-52
2021/06/15 07:40:43;;;;;;;3.60;2.20;;;21.60;99.90;;;;;;5034730;28;20025;-52
2021/06/15 07:43:09;;;;;;;5.38;2.35;;;21.60;99.80;;;;;;5049540;28;20037;-53
2021/06/15 07:45:37;;;;;;;3.13;1.70;;;21.70;99.40;;;;;;5049150;28;20040;-52
2021/06/15 07:48:03;;;;;;;2.95;1.55;;;21.50;98.20;;;;;;5034369;28;20033;-52
2021/06/15 07:50:29;;;;;;;3.90;1.80;;;21.50;98.20;;;;;;5031158;28;20376;-53
2021/06/15 07:52:55;;;;;;;2.67;1.55;;;21.80;99.10;;;;;;5029204;28;20022;-52
2021/06/15 07:55:21;;;;;;;3.60;1.73;;;21.70;97.90;;;;;;5012644;28;20037;-52
2021/06/15 07:57:47;;;;;;;5.13;2.45;;;21.70;97.00;;;;;;5033764;28;20472;-53
2021/06/15 08:00:14;;;;;;;4.63;1.98;;;21.80;97.50;;;;;;5034758;28;20025;-52
2021/06/15 08:02:41;;;;;;;2.22;1.60;;;22.00;98.30;;;;;;5014381;28;20037;-51
2021/06/15 08:05:07;;;;;;;2.85;1.60;;;22.10;96.90;;;;;;5033470;28;20037;-51
2021/06/15 08:07:33;;;;;;;2.47;1.50;;;22.00;96.90;;;;;;5031858;28;20057;-51
2021/06/15 08:09:59;;;;;;;4.97;3.45;;;22.00;96.70;;;;;;5034613;28;20036;-50
2021/06/15 08:12:25;;;;;;;3.80;1.85;;;22.20;96.30;;;;;;5029044;28;20033;-51
2021/06/15 08:14:50;;;;;;;3.38;2.00;;;22.10;96.10;;;;;;5032485;28;20404;-51
2021/06/15 08:17:16;;;;;;;4.13;1.80;;;22.40;96.60;;;;;;5031333;28;20045;-52
2021/06/15 08:19:42;;;;;;;4.00;1.75;;;22.50;96.50;;;;;;5030624;28;20100;-50
2021/06/15 08:22:09;;;;;;;4.93;1.90;;;22.70;95.70;;;;;;5033784;28;20045;-50
2021/06/15 08:24:35;;;;;;;3.42;2.03;;;22.80;96.00;;;;;;5032108;28;20022;-50
2021/06/15 08:27:02;;;;;;;4.93;1.52;;;23.20;96.30;;;;;;5033855;28;20075;-51
2021/06/15 08:29:28;;;;;;;3.67;1.70;;;23.10;93.80;;;;;;5033595;28;20075;-52
2021/06/15 08:31:54;;;;;;;6.43;1.50;;;23.10;93.60;;;;;;5033506;28;20488;-51
2021/06/15 08:34:20;;;;;;;3.92;1.77;;;;;;;;;;5016651;28;20044;-52
2021/06/15 08:36:46;;;;;;;3.72;1.83;;;23.00;95.20;;;;;;5032485;28;20021;-52
2021/06/15 08:39:11;;;;;;;4.75;2.03;;;23.10;97.00;;;;;;5035504;28;20029;-51
2021/06/15 08:41:38;;;;;;;3.03;1.30;;;23.30;93.80;;;;;;5032795;28;20042;-51
2021/06/15 08:44:06;;;;;;;1.85;1.38;;;23.10;98.20;;;;;;5033517;28;20036;-52
2021/06/15 08:46:32;;;;;;;3.78;1.65;;;22.80;99.30;;;;;;5015797;28;20033;-52
2021/06/15 08:49:00;;;;;;;3.10;1.77;;;23.00;99.90;;;;;;5034772;28;20116;-52
2021/06/15 08:51:26;;;;;;;2.95;1.52;;;23.20;99.90;;;;;;5030541;28;20036;-50
2021/06/15 08:53:53;;;;;;;3.20;1.58;;;23.50;99.90;;;;;;5034272;28;20033;-52
2021/06/15 08:56:22;;;;;;;3.47;1.80;;;23.90;99.90;;;;;;5032742;28;20049;-50
2021/06/15 08:58:48;;;;;;;2.22;1.60;;;;;;;;;;5030476;28;20034;-50
2021/06/15 09:01:14;;;;;;;9.82;2.30;;;24.20;99.90;;;;;;5028406;28;20083;-51
2021/06/15 09:03:40;;;;;;;5.35;1.55;;;24.30;91.60;;;;;;5031291;28;20437;-49
2021/06/15 09:06:06;;;;;;;3.13;1.75;;;24.30;93.20;;;;;;4979445;28;20055;-47
2021/06/15 09:08:49;;;;;;;6.05;1.58;;;24.40;92.40;;;;;;5014215;28;20480;-50
2021/06/15 09:11:15;;;;;;;4.70;1.70;;;24.10;92.70;;;;;;5029676;28;20037;-47
2021/06/15 09:13:41;;;;;;;2.92;1.70;;;24.10;92.70;;;;;;5026787;28;20465;-47
2021/06/15 09:57:48;;;;;;;5.20;2.60;;;23.90;99.90;;;;;;5073844;27;20150;-46
2021/06/15 10:00:19;;;;;;;5.70;2.05;;;;;;;;;;5060707;28;20045;-46
2021/06/15 10:02:48;;;;;;;3.58;1.98;;;24.10;95.10;;;;;;5058154;28;20433;-46
2021/06/15 10:05:31;;;;;;;3.40;2.10;;;23.70;95.20;;;;;;5041191;28;20130;-47
2021/06/15 10:08:00;;;;;;;3.15;2.30;;;23.80;95.50;;;;;;5064084;28;20039;-46
2021/06/15 10:10:33;;;;;;;3.92;2.50;;;24.30;95.50;;;;;;5055584;28;20029;-47
2021/06/15 10:13:00;;;;;;;5.10;2.10;;;24.40;93.20;;;;;;5066163;28;20036;-47
2021/06/15 10:15:29;;;;;;;2.95;2.20;;;;;;;;;;5062835;28;20379;-47
2021/06/15 10:17:56;;;;;;;4.53;2.03;;;;;;;;;;5064943;28;20036;-47
2021/06/15 10:20:27;;;;;;;5.40;2.58;;;;;;;;;;5060881;28;20026;-47
2021/06/15 10:22:53;;;;;;;3.30;1.88;;;25.50;92.20;;;;;;5058435;28;20460;-48
2021/06/15 10:25:21;;;;;;;4.68;1.90;;;25.10;91.90;;;;;;5062724;28;20051;-47
2021/06/15 10:27:50;;;;;;;5.30;2.60;;;24.80;91.60;;;;;;5058458;28;20086;-49
2021/06/15 10:30:18;;;;;;;3.92;1.75;;;24.90;92.50;;;;;;5061806;28;20356;-48
2021/06/15 10:33:11;;;;;;;3.45;2.05;;;24.30;92.30;;;;;;5010829;28;20045;-47
2021/06/15 10:35:49;;;;;;;3.33;1.80;;;24.30;93.30;;;;;;5020095;28;20396;-48
2021/06/15 10:38:30;;;;;;;4.80;1.63;;;24.10;92.70;;;;;;5059445;28;20037;-47
2021/06/15 10:41:00;;;;;;;7.32;2.20;;;24.40;92.00;;;;;;5051603;28;20052;-47
2021/06/15 10:43:30;;;;;;;2.97;2.03;;;24.60;92.50;;;;;;5060798;28;20037;-48
2021/06/15 10:46:11;;;;;;;3.03;1.73;;;24.90;91.80;;;;;;5064600;28;20036;-48
2021/06/15 10:48:41;;;;;;;6.55;2.00;;;24.80;91.60;;;;;;5061418;28;20033;-48
2021/06/15 10:51:54;;;;;;;7.35;2.50;;;25.00;92.00;;;;;;5060142;28;20411;-48
2021/06/15 10:54:31;;;;;;;4.70;2.45;;;25.00;91.60;;;;;;4992238;28;20559;-48
2021/06/15 10:57:15;;;;;;;3.72;2.00;;;25.40;91.40;;;;;;4966170;28;20166;-47
2021/06/15 11:00:13;;;;;;;6.00;2.00;;;25.20;91.00;;;;;;4978313;28;20081;-47
2021/06/15 11:03:00;;;;;;;4.50;1.98;;;25.40;91.80;;;;;;4905216;29;20048;-48
2021/06/15 11:05:42;;;;;;;3.45;1.80;;;25.10;90.60;;;;;;4939911;29;20138;-47
2021/06/15 11:08:29;;;;;;;8.73;1.88;;;24.80;91.30;;;;;;4901539;29;20040;-47
2021/06/15 11:11:00;;;;;;;3.72;1.70;;;24.50;91.10;;;;;;4925640;29;20048;-48
2021/06/15 11:13:47;;;;;;;3.40;1.80;;;24.70;92.30;;;;;;4942591;29;20456;-47
2021/06/15 11:16:31;;;;;;;3.88;2.42;;;25.00;91.20;;;;;;4938796;29;20035;-47
2021/06/15 11:19:12;;;;;;;3.38;1.83;;;25.40;91.10;;;;;;4919345;29;20036;-47
2021/06/15 11:21:56;;;;;;;5.55;2.70;;;25.40;90.80;;;;;;4944732;29;20036;-48
2021/06/15 11:24:23;;;;;;;4.90;1.85;;;25.30;90.80;;;;;;4949097;28;20455;-48
2021/06/15 11:26:50;;;;;;;4.45;2.03;;;25.40;95.80;;;;;;4954186;28;20133;-47
2021/06/15 11:29:26;;;;;;;3.20;1.60;;;25.40;95.70;;;;;;4979365;28;20050;-48
2021/06/15 11:31:52;;;;;;;3.85;1.60;;;25.30;95.30;;;;;;4969167;28;20100;-47
2021/06/15 11:34:19;;;;;;;3.47;1.58;;;25.50;91.30;;;;;;4966336;28;20039;-48
2021/06/15 11:36:46;;;;;;;2.78;1.70;;;25.20;89.70;;;;;;4984081;28;20466;-47
2021/06/15 11:39:32;;;;;;;2.92;1.50;;;25.10;90.20;;;;;;5040214;28;20041;-48
2021/06/15 11:42:06;;;;;;;7.13;1.70;;;25.10;90.00;;;;;;5037604;28;20064;-47
2021/06/15 11:44:59;;;;;;;2.63;1.90;;;25.20;91.10;;;;;;5046822;28;20076;-47
2021/06/15 11:47:31;;;;;;;3.70;2.15;;;25.30;91.30;;;;;;5013432;28;20050;-48
2021/06/15 11:50:30;;;;;;;7.00;2.00;;;25.70;91.70;;;;;;5034524;28;20398;-49
2021/06/15 11:52:56;;;;;;;3.90;1.73;;;;;;;;;;5012191;28;20029;-47
2021/06/15 11:55:29;;;;;;;9.55;2.30;;;26.60;97.60;;;;;;5036997;28;20042;-48
2021/06/15 11:58:05;;;;;;;3.85;1.80;;;26.40;89.60;;;;;;5018536;28;20120;-47
2021/06/15 12:00:33;;;;;;;3.33;1.92;;;26.00;90.40;;;;;;5049353;28;20029;-47
2021/06/15 12:03:06;;;;;;;3.47;1.90;;;25.90;90.10;;;;;;5047294;28;20028;-47
2021/06/15 12:05:32;;;;;;;4.38;1.70;;;25.60;89.90;;;;;;5046521;28;20034;-47
2021/06/15 12:07:57;;;;;;;4.47;1.88;;;25.90;90.80;;;;;;5023422;28;20033;-47
2021/06/15 12:10:26;;;;;;;3.72;1.50;;;26.40;90.20;;;;;;5045414;28;20036;-47
2021/06/15 12:13:01;;;;;;;2.00;1.50;;;;;;;;;;5051696;28;20029;-47
2021/06/15 12:15:35;;;;;;;3.05;1.60;;;27.60;88.80;;;;;;5040580;28;20487;-47
2021/06/15 12:18:03;;;;;;;3.03;1.85;;;27.50;87.60;;;;;;5046993;28;20033;-47
2021/06/15 12:20:33;;;;;;;4.15;1.85;;;27.30;86.40;;;;;;5027100;28;20044;-48
2021/06/15 12:23:20;;;;;;;2.80;1.70;;;27.60;87.50;;;;;;5051563;28;20033;-47
2021/06/15 12:25:45;;;;;;;7.60;1.70;;;27.60;87.50;;;;;;5048340;28;20040;-48
2021/06/15 12:28:17;;;;;;;3.38;1.58;;;27.60;86.80;;;;;;5041854;28;20116;-47
2021/06/15 12:30:44;;;;;;;;;;;27.50;87.30;;;;;;5048897;28;20060;-48
2021/06/15 12:33:13;;;;;;;3.17;1.88;;;27.10;86.80;;;;;;5043216;28;19930;-48
2021/06/15 12:35:40;;;;;;;4.63;1.48;;;26.80;88.50;;;;;;5001188;28;20117;-47
2021/06/15 12:38:15;;;;;;;4.53;2.13;;;26.60;88.00;;;;;;5023035;28;20034;-47
2021/06/15 12:40:44;;;;;;;4.35;1.80;;;26.50;88.60;;;;;;5048463;28;20039;-48
2021/06/15 12:43:10;;;;;;;2.63;1.60;;;26.30;89.20;;;;;;5046555;28;20476;-49
2021/06/15 12:45:39;;;;;;;5.00;1.70;;;26.20;89.50;;;;;;5036007;28;20033;-47
2021/06/15 12:48:25;;;;;;;4.90;1.80;;;26.20;90.60;;;;;;5035484;28;20499;-47
2021/06/15 12:51:08;;;;;;;4.47;1.95;;;26.10;89.50;;;;;;5034893;28;20167;-47
2021/06/15 12:53:36;;;;;;;4.10;1.42;;;25.90;90.30;;;;;;5035324;28;20385;-48
2021/06/15 12:56:20;;;;;;;3.65;1.98;;;25.90;90.20;;;;;;5031139;28;20120;-49
2021/06/15 12:58:48;;;;;;;2.75;1.65;;;25.50;90.70;;;;;;5030120;28;20609;-48
2021/06/15 13:01:25;;;;;;;3.90;1.52;;;25.60;90.80;;;;;;5034219;28;20029;-47
2021/06/15 13:03:53;;;;;;;3.55;1.67;;;25.20;90.30;;;;;;5033586;28;20037;-48
2021/06/15 13:06:20;;;;;;;4.45;1.90;;;25.00;90.70;;;;;;5019876;28;20049;-48
2021/06/15 13:08:47;;;;;;;3.17;1.50;;;25.00;91.00;;;;;;5047842;28;20032;-47
2021/06/15 13:11:22;;;;;;;3.78;1.55;;;25.00;90.10;;;;;;5011034;28;20120;-47
2021/06/15 13:13:52;;;;;;;3.60;1.52;;;24.90;90.20;;;;;;5043794;28;20044;-48
2021/06/15 13:16:18;;;;;;;5.55;1.70;;;24.90;90.80;;;;;;5036360;28;20036;-47
2021/06/15 13:19:05;;;;;;;2.80;1.65;;;25.00;90.90;;;;;;5019463;28;20033;-47
2021/06/15 13:22:02;;;;;;;4.43;1.70;;;25.10;91.00;;;;;;5049444;28;20392;-47
2021/06/15 13:24:38;;;;;;;4.22;1.70;;;25.10;91.20;;;;;;5044554;28;20040;-47
2021/06/15 13:27:24;;;;;;;3.97;1.70;;;24.90;90.90;;;;;;5039844;28;20044;-49
2021/06/15 13:29:52;;;;;;;4.25;1.88;;;24.70;91.00;;;;;;5037373;28;20112;-47
2021/06/15 13:32:20;;;;;;;5.78;1.80;;;24.90;91.90;;;;;;5039477;28;20043;-47
2021/06/15 13:35:08;;;;;;;6.03;1.90;;;25.10;91.80;;;;;;5011196;28;20041;-48
2021/06/15 13:37:58;;;;;;;4.43;1.80;;;25.10;91.90;;;;;;5030930;28;20030;-47
2021/06/15 13:40:52;;;;;;;9.23;2.75;;;25.20;92.00;;;;;;5034034;28;20029;-47
2021/06/15 13:43:23;;;;;;;5.78;1.63;;;25.60;92.40;;;;;;5035591;28;20116;-48
2021/06/15 13:45:52;;;;;;;4.63;1.88;;;25.50;91.70;;;;;;5039501;28;20033;-48
2021/06/15 13:48:18;;;;;;;3.92;1.90;;;25.50;91.70;;;;;;4991185;28;20154;-48
2021/06/15 13:50:45;;;;;;;4.20;1.90;;;25.70;91.50;;;;;;4990640;28;20066;-47
2021/06/15 13:53:12;;;;;;;2.78;1.70;;;25.80;91.60;;;;;;4973250;28;20043;-48